createdAt,value
2022-12-11T00:02:12.985Z,45.10
2022-12-11T00:04:41.073Z,40.90
2022-12-11T00:07:09.109Z,39.97
2022-12-11T00:09:37.236Z,38.27
2022-12-11T00:12:07.719Z,39.73
2022-12-11T00:14:36.063Z,42.90
2022-12-11T00:17:04.221Z,42.40
2022-12-11T00:19:32.283Z,38.17
2022-12-11T00:22:00.355Z,38.50
2022-12-11T00:24:28.243Z,42.73
2022-12-11T00:26:56.295Z,39.03
2022-12-11T00:29:25.561Z,40.60
2022-12-11T00:31:53.724Z,32.27
2022-12-11T00:34:21.797Z,37.33
2022-12-11T00:36:50.123Z,39.23
2022-12-11T00:39:18.232Z,36.97
2022-12-11T00:41:46.389Z,39.03
2022-12-11T00:44:14.326Z,35.83
2022-12-11T00:46:43.775Z,35.93
2022-12-11T00:49:11.852Z,36.03
2022-12-11T00:51:39.988Z,31.50
2022-12-11T00:54:08.032Z,36.37
2022-12-11T00:56:36.042Z,36.95
2022-12-11T00:59:04.286Z,29.67
2022-12-11T01:01:32.396Z,35.20
2022-12-11T01:04:01.891Z,37.80
2022-12-11T01:06:30.278Z,33.30
2022-12-11T01:09:12.569Z,33.00
2022-12-11T01:11:41.385Z,35.90
2022-12-11T01:14:09.950Z,30.50
2022-12-11T01:16:38.258Z,33.63
2022-12-11T01:19:07.721Z,31.93
2022-12-11T01:21:35.760Z,28.13
2022-12-11T01:24:03.825Z,37.20
2022-12-11T01:26:31.778Z,27.23
2022-12-11T01:29:00.085Z,30.40
2022-12-11T01:31:28.342Z,30.67
2022-12-11T01:33:56.624Z,29.87
2022-12-11T01:36:25.922Z,32.87
2022-12-11T01:38:54.588Z,30.67
2022-12-11T01:41:23.491Z,34.47
2022-12-11T01:43:59.305Z,28.90
2022-12-11T01:46:28.518Z,32.00
2022-12-11T01:48:57.525Z,32.50
2022-12-11T01:51:27.950Z,31.90
2022-12-11T01:54:00.286Z,32.53
2022-12-11T01:56:29.358Z,31.40
2022-12-11T01:59:00.876Z,30.17
2022-12-11T02:01:34.426Z,34.13
2022-12-11T02:04:03.152Z,28.50
2022-12-11T10:38:23.739Z,17.73
2022-12-11T10:40:54.094Z,16.73
2022-12-11T10:43:22.025Z,15.93
2022-12-11T10:45:54.775Z,15.30
2022-12-11T10:48:23.586Z,15.67
2022-12-11T10:51:01.879Z,14.20
2022-12-11T10:53:32.504Z,14.77
2022-12-11T10:56:01.533Z,14.43
2022-12-11T10:58:34.299Z,13.30
2022-12-11T11:01:11.350Z,11.57
2022-12-11T11:03:53.888Z,14.13
2022-12-11T11:06:24.841Z,14.70
2022-12-11T11:08:55.874Z,13.80
2022-12-11T11:11:28.172Z,14.33
2022-12-11T11:14:14.298Z,9.33
2022-12-11T11:16:44.737Z,11.07
2022-12-11T11:19:23.829Z,15.27
2022-12-11T11:21:54.901Z,16.40
2022-12-11T11:24:35.041Z,13.90
2022-12-11T11:27:18.795Z,16.43
2022-12-11T11:29:52.796Z,12.17
2022-12-11T11:32:23.995Z,14.07
2022-12-11T11:34:52.049Z,15.87
2022-12-11T11:37:26.891Z,13.93
2022-12-11T11:40:03.137Z,14.47
2022-12-11T11:42:38.821Z,14.98
2022-12-11T11:45:14.058Z,12.73
2022-12-11T11:47:50.915Z,14.45
2022-12-11T11:50:23.176Z,13.70
2022-12-11T11:52:57.364Z,13.25
2022-12-11T11:55:38.550Z,12.27
2022-12-11T11:58:13.732Z,12.63
2022-12-11T12:00:41.927Z,12.03
2022-12-11T12:03:13.509Z,14.83
2022-12-11T12:05:46.639Z,15.23
2022-12-11T12:08:23.053Z,12.53
2022-12-11T12:11:00.131Z,14.47
2022-12-11T12:13:51.248Z,14.97
2022-12-11T12:16:52.237Z,13.10
2022-12-11T12:19:27.882Z,15.20
2022-12-11T12:21:56.077Z,10.50
2022-12-11T12:24:38.700Z,13.10
2022-12-11T12:27:49.887Z,12.30
2022-12-11T12:30:15.068Z,9.80
2022-12-11T12:33:00.124Z,11.73
2022-12-11T12:35:36.587Z,13.60
2022-12-11T12:38:12.753Z,12.97
2022-12-11T12:40:55.817Z,10.20
2022-12-11T12:43:53.279Z,10.73
2022-12-11T12:46:34.173Z,9.00
2022-12-11T12:49:03.676Z,8.10
2022-12-11T12:51:31.993Z,12.20
2022-12-11T12:54:05.577Z,7.60
2022-12-11T12:56:40.606Z,13.60
2022-12-11T12:59:20.576Z,10.20
2022-12-11T13:01:52.189Z,9.23
2022-12-11T13:04:55.725Z,9.20
2022-12-11T13:07:29.850Z,8.50
2022-12-11T13:10:01.579Z,14.60
2022-12-11T13:12:40.641Z,8.10
2022-12-11T13:15:28.953Z,9.47
2022-12-11T13:17:57.306Z,11.07
2022-12-11T13:20:27.385Z,9.70
2022-12-11T13:23:09.007Z,8.97
2022-12-11T13:25:49.460Z,11.50
2022-12-11T13:28:25.165Z,10.25
2022-12-11T13:31:24.396Z,10.88
2022-12-11T13:33:55.713Z,7.97
2022-12-11T13:36:29.689Z,12.37
2022-12-11T13:39:01.073Z,10.05
2022-12-11T13:41:30.032Z,9.20
2022-12-11T13:43:59.787Z,11.43
2022-12-11T13:46:32.615Z,13.23
2022-12-11T13:49:03.983Z,10.70
2022-12-11T13:51:35.030Z,11.03
2022-12-11T13:54:09.777Z,8.83
2022-12-11T13:56:39.631Z,9.57
2022-12-11T13:59:19.611Z,9.20
2022-12-11T14:01:48.853Z,7.60
2022-12-11T14:04:20.908Z,7.77
2022-12-11T14:06:49.060Z,10.57
2022-12-11T14:09:20.118Z,10.20
2022-12-11T14:11:53.532Z,9.17
2022-12-11T14:14:29.829Z,8.37
2022-12-11T14:16:59.150Z,9.43
2022-12-11T14:19:27.264Z,9.33
2022-12-11T14:22:00.003Z,11.67
2022-12-11T14:24:28.303Z,11.07
2022-12-11T14:26:56.481Z,11.40
2022-12-11T14:29:32.740Z,8.93
2022-12-11T14:32:05.199Z,7.43
2022-12-11T14:34:38.189Z,9.17
2022-12-11T14:37:08.157Z,6.83
2022-12-11T14:39:42.017Z,11.13
2022-12-11T14:42:16.048Z,8.93
2022-12-11T14:44:50.276Z,10.97
2022-12-11T14:47:22.543Z,10.47
2022-12-11T14:49:55.400Z,12.80
2022-12-11T14:52:26.915Z,8.60
2022-12-11T14:54:59.220Z,13.43
2022-12-11T14:57:30.987Z,17.67
2022-12-11T14:59:59.575Z,11.07
2022-12-11T15:02:32.745Z,11.00
2022-12-11T15:05:13.531Z,10.60
2022-12-11T15:07:42.753Z,10.53
2022-12-11T15:10:28.476Z,11.87
2022-12-11T15:12:56.545Z,13.17
2022-12-11T15:15:24.981Z,12.43
2022-12-11T15:17:55.006Z,11.77
2022-12-11T15:20:27.055Z,13.60
2022-12-11T15:22:58.585Z,14.27
2022-12-11T15:25:29.187Z,11.80
2022-12-11T15:27:59.753Z,15.03
2022-12-11T15:30:31.218Z,16.00
2022-12-11T15:33:20.400Z,13.20
2022-12-11T15:35:57.847Z,13.60
2022-12-11T15:38:31.311Z,14.17
2022-12-11T15:40:59.748Z,14.90
2022-12-11T15:43:29.081Z,13.40
2022-12-11T15:45:57.261Z,13.43
2022-12-11T15:48:26.686Z,16.40
2022-12-11T15:50:54.717Z,14.70
2022-12-11T15:53:22.567Z,17.40
2022-12-11T15:55:50.857Z,12.93
2022-12-11T15:58:20.855Z,13.90
2022-12-11T16:00:48.970Z,14.37
2022-12-11T16:03:19.289Z,11.10
2022-12-11T16:05:49.745Z,14.23
2022-12-11T16:08:20.261Z,17.60
2022-12-11T16:10:49.326Z,15.03
2022-12-11T16:13:17.262Z,15.50
2022-12-11T16:15:46.798Z,14.97
2022-12-11T16:18:19.239Z,16.23
2022-12-11T16:20:49.234Z,14.90
2022-12-11T16:23:17.663Z,12.77
2022-12-11T16:25:47.248Z,13.87
2022-12-11T16:28:17.182Z,14.63
2022-12-11T16:30:45.796Z,15.17
2022-12-11T16:33:14.392Z,17.23
2022-12-11T16:35:42.907Z,15.43
2022-12-11T16:38:13.636Z,23.27
2022-12-11T16:40:41.718Z,18.65
2022-12-11T16:43:09.698Z,16.95
2022-12-11T16:45:37.921Z,15.67
2022-12-11T16:48:06.949Z,16.63
2022-12-11T16:50:36.490Z,16.43
2022-12-11T16:53:04.785Z,16.30
2022-12-11T16:55:34.153Z,16.00
2022-12-11T16:58:02.408Z,16.83
2022-12-11T17:00:31.022Z,15.70
2022-12-11T17:02:59.387Z,18.10
2022-12-11T17:05:27.602Z,15.05
2022-12-11T17:07:56.442Z,17.02
2022-12-11T17:10:24.798Z,17.03
2022-12-11T17:12:54.266Z,17.47
2022-12-11T17:15:22.523Z,19.73
2022-12-11T17:17:50.643Z,15.95
2022-12-11T17:20:20.423Z,16.20
2022-12-11T17:22:48.470Z,16.27
2022-12-11T17:25:22.345Z,16.50
2022-12-11T17:27:50.411Z,17.87
2022-12-11T17:30:19.935Z,17.70
2022-12-11T17:32:49.104Z,15.30
2022-12-11T17:35:17.538Z,24.77
2022-12-11T17:37:45.704Z,17.07
2022-12-11T17:40:13.873Z,16.57
2022-12-11T17:42:43.925Z,24.20
2022-12-11T17:45:13.277Z,12.80
2022-12-11T17:47:42.957Z,18.60
2022-12-11T17:50:11.551Z,18.00
2022-12-11T17:52:44.189Z,18.97
2022-12-11T17:55:12.770Z,16.17
2022-12-11T17:57:41.133Z,16.77
2022-12-11T18:00:10.798Z,16.58
2022-12-11T18:02:38.868Z,17.55
2022-12-11T18:05:08.783Z,16.00
2022-12-11T18:07:38.366Z,15.82
2022-12-11T18:10:07.189Z,16.30
2022-12-11T18:12:35.654Z,17.43
2022-12-11T18:15:04.838Z,18.03
2022-12-11T18:17:33.226Z,17.50
2022-12-11T18:20:01.294Z,17.87
2022-12-11T18:22:30.726Z,20.90
2022-12-11T18:24:59.609Z,20.13
2022-12-11T18:27:29.150Z,20.73
2022-12-11T18:29:57.447Z,17.95
2022-12-11T18:32:25.630Z,15.77
2022-12-11T18:34:53.707Z,16.57
2022-12-11T18:37:27.555Z,18.23
2022-12-11T18:39:57.356Z,16.70
2022-12-11T18:42:33.643Z,19.43
2022-12-11T18:45:02.279Z,16.60
2022-12-11T18:47:31.012Z,15.02
2022-12-11T18:50:03.946Z,14.70
2022-12-11T18:52:36.017Z,14.02
2022-12-11T18:55:06.237Z,15.37
2022-12-11T18:57:34.351Z,13.87
2022-12-11T19:00:07.055Z,19.57
2022-12-11T19:02:35.563Z,13.43
2022-12-11T19:05:03.482Z,18.33
2022-12-11T19:07:31.582Z,14.87
2022-12-11T19:09:59.530Z,16.90
2022-12-11T19:12:29.079Z,17.47
2022-12-11T19:14:57.034Z,12.93
2022-12-11T19:17:25.132Z,20.10
2022-12-11T19:19:53.162Z,16.80
2022-12-11T19:22:21.589Z,21.70
2022-12-11T19:24:49.775Z,18.50
2022-12-11T19:27:18.002Z,19.67
2022-12-11T19:29:47.328Z,22.70
2022-12-11T19:32:15.453Z,19.50
2022-12-11T19:34:43.361Z,20.20
2022-12-11T19:37:11.541Z,23.55
2022-12-11T19:39:41.123Z,22.67
2022-12-11T19:42:09.104Z,20.55
2022-12-11T19:44:37.180Z,17.40
2022-12-11T19:47:07.358Z,20.13
2022-12-11T19:49:35.334Z,16.47
2022-12-11T19:52:04.718Z,17.30
2022-12-11T19:54:32.679Z,18.93
2022-12-11T19:57:00.727Z,19.43
2022-12-11T19:59:28.642Z,18.20
2022-12-11T20:01:56.862Z,20.85
2022-12-11T20:04:26.254Z,17.60
2022-12-11T20:06:54.315Z,22.83
2022-12-11T20:09:22.595Z,18.07
2022-12-11T20:11:50.901Z,19.58
2022-12-11T20:14:21.902Z,21.63
2022-12-11T20:19:39.740Z,22.53
2022-12-11T20:22:07.789Z,20.60
2022-12-11T20:24:35.919Z,17.70
2022-12-11T20:27:04.337Z,19.23
2022-12-11T20:29:33.112Z,19.83
2022-12-11T20:32:01.321Z,15.07
2022-12-11T20:34:29.512Z,16.87
2022-12-11T20:37:00.319Z,14.13
2022-12-11T20:39:29.202Z,16.23
2022-12-11T20:41:57.129Z,20.17
2022-12-11T20:44:25.458Z,17.23
2022-12-11T20:46:53.640Z,17.23
2022-12-11T20:49:21.575Z,17.67
2022-12-11T20:51:49.676Z,16.63
2022-12-11T20:54:18.979Z,18.90
2022-12-11T20:56:47.818Z,18.43
2022-12-11T20:59:15.984Z,21.47
2022-12-11T21:01:44.492Z,21.60
2022-12-11T21:04:12.954Z,21.73
2022-12-11T21:06:42.166Z,21.20
2022-12-11T21:09:14.799Z,16.53
2022-12-11T21:11:44.500Z,19.53
2022-12-11T21:14:12.474Z,16.90
2022-12-11T21:16:40.899Z,14.43
2022-12-11T21:19:13.675Z,17.63
2022-12-11T21:21:45.651Z,17.27
2022-12-11T21:24:17.226Z,19.03
2022-12-11T21:26:47.223Z,19.03
2022-12-11T21:29:15.758Z,15.82
2022-12-11T21:31:44.592Z,18.10
2022-12-11T21:34:13.212Z,14.27
2022-12-11T21:36:41.291Z,17.20
2022-12-11T21:39:10.011Z,17.83
2022-12-11T21:41:38.366Z,16.47
2022-12-11T21:45:31.062Z,15.50
2022-12-11T21:46:55.974Z,20.40
2022-12-11T21:49:24.161Z,16.03
2022-12-11T21:51:52.361Z,18.80
2022-12-11T21:54:21.383Z,16.10
2022-12-11T21:56:49.716Z,18.03
2022-12-11T21:59:18.964Z,18.20
2022-12-11T22:01:47.279Z,19.43
2022-12-11T22:04:16.753Z,17.53
2022-12-11T22:06:47.336Z,17.70
2022-12-11T22:09:17.898Z,11.70
2022-12-11T22:11:47.994Z,14.43
2022-12-11T22:14:18.781Z,23.10
2022-12-11T22:16:47.350Z,15.77
2022-12-11T22:19:15.710Z,18.17
2022-12-11T22:21:43.886Z,19.37
2022-12-11T22:24:11.961Z,17.80
2022-12-11T22:26:40.915Z,19.00
2022-12-11T22:29:08.995Z,19.17
2022-12-11T22:31:38.404Z,17.87
2022-12-11T22:34:06.335Z,19.67
2022-12-11T22:36:34.500Z,18.33
2022-12-11T22:39:03.060Z,16.57
2022-12-11T22:41:32.869Z,15.80
2022-12-11T22:44:01.405Z,19.13
2022-12-11T22:46:31.863Z,17.25
2022-12-11T22:49:01.305Z,15.43
2022-12-11T22:51:29.233Z,19.77
2022-12-11T22:53:58.615Z,17.23
2022-12-11T22:56:27.064Z,20.70
2022-12-11T22:58:55.313Z,19.03
2022-12-11T23:01:25.422Z,15.95
2022-12-11T23:03:54.161Z,14.77
2022-12-11T23:06:25.807Z,17.08
2022-12-11T23:08:55.149Z,17.97
2022-12-11T23:11:25.852Z,14.43
2022-12-11T23:13:54.462Z,14.20
2022-12-11T23:16:24.596Z,14.23
2022-12-11T23:18:53.082Z,15.17
2022-12-11T23:21:21.819Z,18.63
2022-12-11T23:23:51.296Z,18.63
2022-12-11T23:26:20.189Z,19.02
2022-12-11T23:28:48.560Z,17.07
2022-12-11T23:31:17.571Z,16.03
2022-12-11T23:33:45.825Z,18.80
2022-12-11T23:36:14.511Z,17.33
2022-12-11T23:38:42.819Z,15.20
2022-12-11T23:41:15.086Z,16.30
2022-12-11T23:43:43.694Z,17.52
2022-12-11T23:46:15.016Z,18.40
2022-12-11T23:48:43.751Z,16.15
2022-12-11T23:51:15.165Z,16.27
2022-12-11T23:53:43.940Z,17.70
2022-12-11T23:56:15.921Z,14.70
2022-12-11T23:58:44.124Z,19.50
